sensor_id;sensor_type;location;lat;lon;timestamp;temperature;humidity
68578;SHT31;61668;45.388;11.784;2023-03-21T00:01:11;8.15;83.99
68578;SHT31;61668;45.388;11.784;2023-03-21T00:03:38;8.15;84.10
68578;SHT31;61668;45.388;11.784;2023-03-21T00:06:05;8.13;84.12
68578;SHT31;61668;45.388;11.784;2023-03-21T00:08:33;8.11;84.17
68578;SHT31;61668;45.388;11.784;2023-03-21T00:11:00;8.10;84.16
68578;SHT31;61668;45.388;11.784;2023-03-21T00:13:29;8.07;84.21
68578;SHT31;61668;45.388;11.784;2023-03-21T00:15:58;8.06;84.38
68578;SHT31;61668;45.388;11.784;2023-03-21T00:18:33;8.05;84.58
68578;SHT31;61668;45.388;11.784;2023-03-21T00:21:06;8.06;84.90
68578;SHT31;61668;45.388;11.784;2023-03-21T00:23:35;8.07;85.11
68578;SHT31;61668;45.388;11.784;2023-03-21T00:26:04;8.08;85.25
68578;SHT31;61668;45.388;11.784;2023-03-21T00:28:30;8.09;85.42
68578;SHT31;61668;45.388;11.784;2023-03-21T00:31:06;8.10;85.59
68578;SHT31;61668;45.388;11.784;2023-03-21T00:33:33;8.11;85.72
68578;SHT31;61668;45.388;11.784;2023-03-21T00:36:03;8.13;85.84
68578;SHT31;61668;45.388;11.784;2023-03-21T00:38:30;8.14;85.95
68578;SHT31;61668;45.388;11.784;2023-03-21T00:41:03;8.16;85.96
68578;SHT31;61668;45.388;11.784;2023-03-21T00:43:32;8.15;85.84
68578;SHT31;61668;45.388;11.784;2023-03-21T00:46:03;8.14;85.80
68578;SHT31;61668;45.388;11.784;2023-03-21T00:48:36;8.15;85.80
68578;SHT31;61668;45.388;11.784;2023-03-21T00:51:09;8.15;85.76
68578;SHT31;61668;45.388;11.784;2023-03-21T00:53:53;8.12;85.63
68578;SHT31;61668;45.388;11.784;2023-03-21T00:56:22;8.11;85.52
68578;SHT31;61668;45.388;11.784;2023-03-21T00:58:55;8.08;85.35
68578;SHT31;61668;45.388;11.784;2023-03-21T01:01:33;8.06;85.30
68578;SHT31;61668;45.388;11.784;2023-03-21T01:04:17;8.02;85.19
68578;SHT31;61668;45.388;11.784;2023-03-21T01:06:51;7.99;85.04
68578;SHT31;61668;45.388;11.784;2023-03-21T01:09:22;7.97;84.93
68578;SHT31;61668;45.388;11.784;2023-03-21T01:11:58;7.93;84.80
68578;SHT31;61668;45.388;11.784;2023-03-21T01:14:31;7.90;84.71
68578;SHT31;61668;45.388;11.784;2023-03-21T01:17:04;7.88;84.70
68578;SHT31;61668;45.388;11.784;2023-03-21T01:19:35;7.85;84.68
68578;SHT31;61668;45.388;11.784;2023-03-21T01:22:07;7.82;84.62
68578;SHT31;61668;45.388;11.784;2023-03-21T01:24:40;7.79;84.51
68578;SHT31;61668;45.388;11.784;2023-03-21T01:27:12;7.76;84.45
68578;SHT31;61668;45.388;11.784;2023-03-21T01:29:41;7.72;84.43
68578;SHT31;61668;45.388;11.784;2023-03-21T01:32:15;7.68;84.40
68578;SHT31;61668;45.388;11.784;2023-03-21T01:34:43;7.65;84.40
68578;SHT31;61668;45.388;11.784;2023-03-21T01:37:47;7.63;84.40
68578;SHT31;61668;45.388;11.784;2023-03-21T01:40:34;7.59;84.33
68578;SHT31;61668;45.388;11.784;2023-03-21T01:43:14;7.57;84.38
68578;SHT31;61668;45.388;11.784;2023-03-21T01:46:42;7.53;84.39
68578;SHT31;61668;45.388;11.784;2023-03-21T01:49:27;7.51;84.40
68578;SHT31;61668;45.388;11.784;2023-03-21T01:52:40;7.47;84.41
68578;SHT31;61668;45.388;11.784;2023-03-21T01:55:16;7.44;84.47
68578;SHT31;61668;45.388;11.784;2023-03-21T01:57:52;7.40;84.50
68578;SHT31;61668;45.388;11.784;2023-03-21T02:00:26;7.37;84.56
68578;SHT31;61668;45.388;11.784;2023-03-21T02:03:12;7.35;84.66
68578;SHT31;61668;45.388;11.784;2023-03-21T02:08:19;7.30;84.76
68578;SHT31;61668;45.388;11.784;2023-03-21T02:10:56;7.28;84.80
68578;SHT31;61668;45.388;11.784;2023-03-21T02:13:28;7.27;84.82
68578;SHT31;61668;45.388;11.784;2023-03-21T02:15:58;7.25;84.90
68578;SHT31;61668;45.388;11.784;2023-03-21T02:19:03;7.23;84.90
68578;SHT31;61668;45.388;11.784;2023-03-21T02:21:52;7.20;84.90
68578;SHT31;61668;45.388;11.784;2023-03-21T02:24:55;7.19;85.08
68578;SHT31;61668;45.388;11.784;2023-03-21T02:33:55;7.14;85.20
68578;SHT31;61668;45.388;11.784;2023-03-21T02:45:12;7.09;85.25
68578;SHT31;61668;45.388;11.784;2023-03-21T02:47:51;7.06;85.20
68578;SHT31;61668;45.388;11.784;2023-03-21T02:52:48;7.02;85.14
68578;SHT31;61668;45.388;11.784;2023-03-21T02:55:18;6.99;85.11
68578;SHT31;61668;45.388;11.784;2023-03-21T02:57:51;6.98;85.20
68578;SHT31;61668;45.388;11.784;2023-03-21T03:00:20;6.95;85.18
68578;SHT31;61668;45.388;11.784;2023-03-21T03:02:58;6.95;85.20
68578;SHT31;61668;45.388;11.784;2023-03-21T03:05:25;6.94;85.20
68578;SHT31;61668;45.388;11.784;2023-03-21T03:13:32;6.87;85.40
68578;SHT31;61668;45.388;11.784;2023-03-21T03:16:20;6.86;85.44
68578;SHT31;61668;45.388;11.784;2023-03-21T03:19:28;6.83;85.47
68578;SHT31;61668;45.388;11.784;2023-03-21T03:22:05;6.81;85.60
68578;SHT31;61668;45.388;11.784;2023-03-21T03:24:41;6.80;85.72
68578;SHT31;61668;45.388;11.784;2023-03-21T03:27:28;6.79;85.71
68578;SHT31;61668;45.388;11.784;2023-03-21T03:30:00;6.76;85.61
68578;SHT31;61668;45.388;11.784;2023-03-21T03:32:30;6.74;85.59
68578;SHT31;61668;45.388;11.784;2023-03-21T03:35:03;6.72;85.62
68578;SHT31;61668;45.388;11.784;2023-03-21T03:37:32;6.70;85.62
68578;SHT31;61668;45.388;11.784;2023-03-21T03:40:05;6.69;85.60
68578;SHT31;61668;45.388;11.784;2023-03-21T03:45:10;6.64;85.60
68578;SHT31;61668;45.388;11.784;2023-03-21T03:47:39;6.64;85.70
68578;SHT31;61668;45.388;11.784;2023-03-21T03:50:31;6.62;85.74
68578;SHT31;61668;45.388;11.784;2023-03-21T03:53:06;6.61;85.75
68578;SHT31;61668;45.388;11.784;2023-03-21T03:55:42;6.59;85.70
68578;SHT31;61668;45.388;11.784;2023-03-21T03:58:09;6.57;85.71
68578;SHT31;61668;45.388;11.784;2023-03-21T04:00:36;6.55;85.72
68578;SHT31;61668;45.388;11.784;2023-03-21T04:03:04;6.54;85.79
68578;SHT31;61668;45.388;11.784;2023-03-21T04:05:31;6.52;85.88
68578;SHT31;61668;45.388;11.784;2023-03-21T04:07:57;6.50;85.84
68578;SHT31;61668;45.388;11.784;2023-03-21T04:10:23;6.50;85.80
68578;SHT31;61668;45.388;11.784;2023-03-21T04:12:49;6.48;85.77
68578;SHT31;61668;45.388;11.784;2023-03-21T04:15:15;6.45;85.70
68578;SHT31;61668;45.388;11.784;2023-03-21T04:17:43;6.43;85.69
68578;SHT31;61668;45.388;11.784;2023-03-21T04:20:09;6.41;85.69
68578;SHT31;61668;45.388;11.784;2023-03-21T04:22:35;6.40;85.67
68578;SHT31;61668;45.388;11.784;2023-03-21T04:25:01;6.38;85.60
68578;SHT31;61668;45.388;11.784;2023-03-21T04:27:29;6.37;85.60
68578;SHT31;61668;45.388;11.784;2023-03-21T04:29:56;6.34;85.57
68578;SHT31;61668;45.388;11.784;2023-03-21T04:32:23;6.33;85.51
68578;SHT31;61668;45.388;11.784;2023-03-21T04:34:50;6.30;85.42
68578;SHT31;61668;45.388;11.784;2023-03-21T04:37:21;6.28;85.39
68578;SHT31;61668;45.388;11.784;2023-03-21T04:39:48;6.27;85.31
68578;SHT31;61668;45.388;11.784;2023-03-21T04:42:17;6.24;85.27
68578;SHT31;61668;45.388;11.784;2023-03-21T04:44:44;6.22;85.27
68578;SHT31;61668;45.388;11.784;2023-03-21T04:47:10;6.21;85.24
68578;SHT31;61668;45.388;11.784;2023-03-21T04:49:37;6.19;85.30
68578;SHT31;61668;45.388;11.784;2023-03-21T04:52:03;6.17;85.30
68578;SHT31;61668;45.388;11.784;2023-03-21T04:54:30;6.17;85.35
68578;SHT31;61668;45.388;11.784;2023-03-21T04:56:56;6.15;85.37
68578;SHT31;61668;45.388;11.784;2023-03-21T04:59:23;6.13;85.43
68578;SHT31;61668;45.388;11.784;2023-03-21T05:01:50;6.11;85.55
68578;SHT31;61668;45.388;11.784;2023-03-21T05:04:16;6.11;85.64
68578;SHT31;61668;45.388;11.784;2023-03-21T05:06:42;6.11;85.79
68578;SHT31;61668;45.388;11.784;2023-03-21T05:09:10;6.09;85.93
68578;SHT31;61668;45.388;11.784;2023-03-21T05:11:37;6.09;86.08
68578;SHT31;61668;45.388;11.784;2023-03-21T05:14:09;6.09;86.18
68578;SHT31;61668;45.388;11.784;2023-03-21T05:16:39;6.07;86.10
68578;SHT31;61668;45.388;11.784;2023-03-21T05:19:12;6.06;86.00
68578;SHT31;61668;45.388;11.784;2023-03-21T05:21:39;6.04;86.00
68578;SHT31;61668;45.388;11.784;2023-03-21T05:24:10;6.04;86.00
68578;SHT31;61668;45.388;11.784;2023-03-21T05:26:40;6.03;85.96
68578;SHT31;61668;45.388;11.784;2023-03-21T05:29:08;6.03;85.89
68578;SHT31;61668;45.388;11.784;2023-03-21T05:31:35;6.02;85.89
68578;SHT31;61668;45.388;11.784;2023-03-21T05:34:01;6.03;85.91
68578;SHT31;61668;45.388;11.784;2023-03-21T05:36:27;6.04;86.00
68578;SHT31;61668;45.388;11.784;2023-03-21T05:38:54;6.04;86.03
68578;SHT31;61668;45.388;11.784;2023-03-21T05:41:19;6.07;86.09
68578;SHT31;61668;45.388;11.784;2023-03-21T05:43:46;6.09;86.16
68578;SHT31;61668;45.388;11.784;2023-03-21T05:46:12;6.14;86.37
68578;SHT31;61668;45.388;11.784;2023-03-21T05:48:37;6.18;86.42
68578;SHT31;61668;45.388;11.784;2023-03-21T05:51:03;6.22;86.40
68578;SHT31;61668;45.388;11.784;2023-03-21T05:53:30;6.27;86.34
68578;SHT31;61668;45.388;11.784;2023-03-21T05:55:56;6.30;86.17
68578;SHT31;61668;45.388;11.784;2023-03-21T05:58:21;6.34;86.03
68578;SHT31;61668;45.388;11.784;2023-03-21T06:00:48;6.38;85.99
68578;SHT31;61668;45.388;11.784;2023-03-21T06:03:13;6.43;85.92
68578;SHT31;61668;45.388;11.784;2023-03-21T06:05:39;6.47;85.85
68578;SHT31;61668;45.388;11.784;2023-03-21T06:08:05;6.50;85.73
68578;SHT31;61668;45.388;11.784;2023-03-21T06:10:30;6.54;85.67
68578;SHT31;61668;45.388;11.784;2023-03-21T06:12:56;6.55;85.72
68578;SHT31;61668;45.388;11.784;2023-03-21T06:15:22;6.59;85.91
68578;SHT31;61668;45.388;11.784;2023-03-21T06:17:47;6.62;86.07
68578;SHT31;61668;45.388;11.784;2023-03-21T06:20:13;6.66;86.19
68578;SHT31;61668;45.388;11.784;2023-03-21T06:22:39;6.70;86.31
68578;SHT31;61668;45.388;11.784;2023-03-21T06:25:06;6.77;86.48
68578;SHT31;61668;45.388;11.784;2023-03-21T06:27:33;6.83;86.54
68578;SHT31;61668;45.388;11.784;2023-03-21T06:29:59;6.89;86.60
68578;SHT31;61668;45.388;11.784;2023-03-21T06:32:25;6.97;86.62
68578;SHT31;61668;45.388;11.784;2023-03-21T06:34:51;7.07;86.70
68578;SHT31;61668;45.388;11.784;2023-03-21T06:37:17;7.14;86.70
68578;SHT31;61668;45.388;11.784;2023-03-21T06:39:43;7.23;86.73
68578;SHT31;61668;45.388;11.784;2023-03-21T06:42:09;7.29;86.78
68578;SHT31;61668;45.388;11.784;2023-03-21T06:44:36;7.38;86.80
68578;SHT31;61668;45.388;11.784;2023-03-21T06:47:01;7.44;86.73
68578;SHT31;61668;45.388;11.784;2023-03-21T06:49:27;7.50;86.70
68578;SHT31;61668;45.388;11.784;2023-03-21T06:51:53;7.56;86.60
68578;SHT31;61668;45.388;11.784;2023-03-21T06:54:18;7.64;86.53
68578;SHT31;61668;45.388;11.784;2023-03-21T06:56:45;7.69;86.37
68578;SHT31;61668;45.388;11.784;2023-03-21T06:59:11;7.74;86.11
68578;SHT31;61668;45.388;11.784;2023-03-21T07:01:37;7.80;86.01
68578;SHT31;61668;45.388;11.784;2023-03-21T07:04:03;7.86;85.88
68578;SHT31;61668;45.388;11.784;2023-03-21T07:06:30;7.94;85.73
68578;SHT31;61668;45.388;11.784;2023-03-21T07:08:57;8.01;85.54
68578;SHT31;61668;45.388;11.784;2023-03-21T07:11:23;8.09;85.33
68578;SHT31;61668;45.388;11.784;2023-03-21T07:13:49;8.17;85.19
68578;SHT31;61668;45.388;11.784;2023-03-21T07:16:16;8.30;85.13
68578;SHT31;61668;45.388;11.784;2023-03-21T07:18:45;8.42;84.89
68578;SHT31;61668;45.388;11.784;2023-03-21T07:21:11;8.55;84.63
68578;SHT31;61668;45.388;11.784;2023-03-21T07:23:37;8.66;84.50
68578;SHT31;61668;45.388;11.784;2023-03-21T07:26:04;8.79;84.34
68578;SHT31;61668;45.388;11.784;2023-03-21T07:28:30;8.90;84.09
68578;SHT31;61668;45.388;11.784;2023-03-21T07:30:58;9.00;84.01
68578;SHT31;61668;45.388;11.784;2023-03-21T07:33:26;9.10;83.85
68578;SHT31;61668;45.388;11.784;2023-03-21T07:35:53;9.24;83.73
68578;SHT31;61668;45.388;11.784;2023-03-21T07:38:20;9.39;83.48
68578;SHT31;61668;45.388;11.784;2023-03-21T07:40:46;9.55;83.25
68578;SHT31;61668;45.388;11.784;2023-03-21T07:43:13;9.73;83.02
68578;SHT31;61668;45.388;11.784;2023-03-21T07:45:40;9.91;82.61
68578;SHT31;61668;45.388;11.784;2023-03-21T07:48:06;10.10;82.33
68578;SHT31;61668;45.388;11.784;2023-03-21T07:50:34;10.33;82.09
68578;SHT31;61668;45.388;11.784;2023-03-21T07:53:00;10.60;81.69
68578;SHT31;61668;45.388;11.784;2023-03-21T07:55:26;10.98;81.08
68578;SHT31;61668;45.388;11.784;2023-03-21T07:57:52;11.38;80.56
68578;SHT31;61668;45.388;11.784;2023-03-21T08:00:18;11.72;80.34
68578;SHT31;61668;45.388;11.784;2023-03-21T08:02:50;12.02;79.96
68578;SHT31;61668;45.388;11.784;2023-03-21T08:05:21;12.30;79.24
68578;SHT31;61668;45.388;11.784;2023-03-21T08:07:48;12.51;78.60
68578;SHT31;61668;45.388;11.784;2023-03-21T08:10:14;12.82;78.07
68578;SHT31;61668;45.388;11.784;2023-03-21T08:12:41;13.41;77.18
68578;SHT31;61668;45.388;11.784;2023-03-21T08:15:07;14.25;75.73
68578;SHT31;61668;45.388;11.784;2023-03-21T08:17:33;15.23;74.15
68578;SHT31;61668;45.388;11.784;2023-03-21T08:20:05;16.21;72.31
68578;SHT31;61668;45.388;11.784;2023-03-21T08:22:33;17.13;70.62
68578;SHT31;61668;45.388;11.784;2023-03-21T08:25:00;18.02;68.92
68578;SHT31;61668;45.388;11.784;2023-03-21T08:27:29;18.83;67.44
68578;SHT31;61668;45.388;11.784;2023-03-21T08:29:56;19.64;65.76
68578;SHT31;61668;45.388;11.784;2023-03-21T08:32:22;20.35;64.16
68578;SHT31;61668;45.388;11.784;2023-03-21T08:34:53;20.98;62.16
68578;SHT31;61668;45.388;11.784;2023-03-21T08:37:24;21.58;61.14
68578;SHT31;61668;45.388;11.784;2023-03-21T08:39:51;22.17;59.28
68578;SHT31;61668;45.388;11.784;2023-03-21T08:42:17;22.69;57.96
68578;SHT31;61668;45.388;11.784;2023-03-21T08:44:43;23.14;56.89
68578;SHT31;61668;45.388;11.784;2023-03-21T08:47:08;23.49;54.86
68578;SHT31;61668;45.388;11.784;2023-03-21T08:49:34;23.76;54.12
68578;SHT31;61668;45.388;11.784;2023-03-21T08:52:00;24.08;52.86
68578;SHT31;61668;45.388;11.784;2023-03-21T08:54:26;24.32;51.76
68578;SHT31;61668;45.388;11.784;2023-03-21T08:56:52;24.61;51.63
68578;SHT31;61668;45.388;11.784;2023-03-21T08:59:18;24.87;49.98
68578;SHT31;61668;45.388;11.784;2023-03-21T09:01:43;25.05;49.47
68578;SHT31;61668;45.388;11.784;2023-03-21T09:04:09;25.29;49.39
68578;SHT31;61668;45.388;11.784;2023-03-21T09:06:36;25.56;48.27
68578;SHT31;61668;45.388;11.784;2023-03-21T09:09:02;25.79;47.92
68578;SHT31;61668;45.388;11.784;2023-03-21T09:11:31;26.06;47.57
68578;SHT31;61668;45.388;11.784;2023-03-21T09:13:57;26.32;47.19
68578;SHT31;61668;45.388;11.784;2023-03-21T09:16:23;26.51;45.83
68578;SHT31;61668;45.388;11.784;2023-03-21T09:18:49;26.55;44.70
68578;SHT31;61668;45.388;11.784;2023-03-21T09:21:20;26.65;44.94
68578;SHT31;61668;45.388;11.784;2023-03-21T09:23:48;26.69;44.12
68578;SHT31;61668;45.388;11.784;2023-03-21T09:26:17;26.64;44.09
68578;SHT31;61668;45.388;11.784;2023-03-21T09:28:44;26.61;43.96
68578;SHT31;61668;45.388;11.784;2023-03-21T09:31:13;26.67;43.80
68578;SHT31;61668;45.388;11.784;2023-03-21T09:33:40;26.80;43.09
68578;SHT31;61668;45.388;11.784;2023-03-21T09:36:08;27.01;42.88
68578;SHT31;61668;45.388;11.784;2023-03-21T09:38:45;27.21;42.18
68578;SHT31;61668;45.388;11.784;2023-03-21T09:47:24;27.30;41.21
68578;SHT31;61668;45.388;11.784;2023-03-21T09:50:05;27.29;41.70
68578;SHT31;61668;45.388;11.784;2023-03-21T09:55:30;26.98;40.58
68578;SHT31;61668;45.388;11.784;2023-03-21T10:01:01;26.22;41.59
68578;SHT31;61668;45.388;11.784;2023-03-21T10:03:46;25.92;42.19
68578;SHT31;61668;45.388;11.784;2023-03-21T10:06:14;25.73;42.45
68578;SHT31;61668;45.388;11.784;2023-03-21T10:08:44;25.57;42.18
68578;SHT31;61668;45.388;11.784;2023-03-21T10:11:17;25.23;42.02
68578;SHT31;61668;45.388;11.784;2023-03-21T10:13:50;24.92;43.18
68578;SHT31;61668;45.388;11.784;2023-03-21T10:16:29;24.67;43.75
68578;SHT31;61668;45.388;11.784;2023-03-21T10:19:13;24.43;44.25
68578;SHT31;61668;45.388;11.784;2023-03-21T10:21:43;24.18;44.31
68578;SHT31;61668;45.388;11.784;2023-03-21T10:24:16;24.01;43.68
68578;SHT31;61668;45.388;11.784;2023-03-21T10:26:47;23.82;44.07
68578;SHT31;61668;45.388;11.784;2023-03-21T10:29:16;23.74;44.31
68578;SHT31;61668;45.388;11.784;2023-03-21T10:31:46;23.58;44.87
68578;SHT31;61668;45.388;11.784;2023-03-21T10:36:53;23.37;45.41
68578;SHT31;61668;45.388;11.784;2023-03-21T10:39:33;23.36;45.23
68578;SHT31;61668;45.388;11.784;2023-03-21T10:42:02;23.35;45.31
68578;SHT31;61668;45.388;11.784;2023-03-21T10:44:29;23.38;45.66
68578;SHT31;61668;45.388;11.784;2023-03-21T10:46:58;23.42;45.49
68578;SHT31;61668;45.388;11.784;2023-03-21T10:49:30;23.39;44.86
68578;SHT31;61668;45.388;11.784;2023-03-21T10:51:57;23.31;44.51
68578;SHT31;61668;45.388;11.784;2023-03-21T10:54:28;23.24;44.61
68578;SHT31;61668;45.388;11.784;2023-03-21T10:56:57;23.18;44.55
68578;SHT31;61668;45.388;11.784;2023-03-21T10:59:38;23.08;44.80
68578;SHT31;61668;45.388;11.784;2023-03-21T11:02:16;22.97;44.76
68578;SHT31;61668;45.388;11.784;2023-03-21T11:05:05;22.86;44.93
68578;SHT31;61668;45.388;11.784;2023-03-21T11:07:42;22.85;44.93
68578;SHT31;61668;45.388;11.784;2023-03-21T11:10:15;22.89;45.15
68578;SHT31;61668;45.388;11.784;2023-03-21T11:12:58;22.96;45.06
68578;SHT31;61668;45.388;11.784;2023-03-21T11:15:52;22.98;44.80
68578;SHT31;61668;45.388;11.784;2023-03-21T11:18:23;22.86;44.41
68578;SHT31;61668;45.388;11.784;2023-03-21T11:20:53;22.78;44.49
68578;SHT31;61668;45.388;11.784;2023-03-21T11:23:24;22.74;44.77
68578;SHT31;61668;45.388;11.784;2023-03-21T11:25:54;22.74;44.95
68578;SHT31;61668;45.388;11.784;2023-03-21T11:28:23;22.73;45.52
68578;SHT31;61668;45.388;11.784;2023-03-21T11:30:57;22.74;45.57
68578;SHT31;61668;45.388;11.784;2023-03-21T11:33:36;22.67;45.24
68578;SHT31;61668;45.388;11.784;2023-03-21T11:38:42;22.61;45.55
68578;SHT31;61668;45.388;11.784;2023-03-21T11:41:08;22.63;45.35
68578;SHT31;61668;45.388;11.784;2023-03-21T11:43:53;22.63;45.44
68578;SHT31;61668;45.388;11.784;2023-03-21T11:46:23;22.61;45.38
68578;SHT31;61668;45.388;11.784;2023-03-21T11:48:57;22.57;45.22
68578;SHT31;61668;45.388;11.784;2023-03-21T11:54:53;22.34;44.97
68578;SHT31;61668;45.388;11.784;2023-03-21T12:00:53;22.09;45.36
68578;SHT31;61668;45.388;11.784;2023-03-21T12:03:37;21.94;45.37
68578;SHT31;61668;45.388;11.784;2023-03-21T12:06:20;21.83;45.69
68578;SHT31;61668;45.388;11.784;2023-03-21T12:09:05;21.78;45.90
68578;SHT31;61668;45.388;11.784;2023-03-21T12:11:55;21.71;45.87
68578;SHT31;61668;45.388;11.784;2023-03-21T12:14:44;21.63;46.12
68578;SHT31;61668;45.388;11.784;2023-03-21T12:26:04;21.36;47.22
68578;SHT31;61668;45.388;11.784;2023-03-21T12:28:57;21.29;47.47
68578;SHT31;61668;45.388;11.784;2023-03-21T12:37:59;21.21;47.84
68578;SHT31;61668;45.388;11.784;2023-03-21T12:54:55;21.15;47.90
68578;SHT31;61668;45.388;11.784;2023-03-21T12:57:41;21.11;47.97
68578;SHT31;61668;45.388;11.784;2023-03-21T13:00:34;21.12;48.25
68578;SHT31;61668;45.388;11.784;2023-03-21T13:03:25;21.15;48.08
68578;SHT31;61668;45.388;11.784;2023-03-21T13:05:59;21.19;48.19
68578;SHT31;61668;45.388;11.784;2023-03-21T13:11:56;21.21;48.39
68578;SHT31;61668;45.388;11.784;2023-03-21T13:14:35;21.21;48.40
68578;SHT31;61668;45.388;11.784;2023-03-21T13:17:12;21.23;48.10
68578;SHT31;61668;45.388;11.784;2023-03-21T13:19:50;21.24;47.64
68578;SHT31;61668;45.388;11.784;2023-03-21T13:22:32;21.26;47.25
68578;SHT31;61668;45.388;11.784;2023-03-21T13:25:05;21.27;47.09
68578;SHT31;61668;45.388;11.784;2023-03-21T13:28:02;21.25;47.13
68578;SHT31;61668;45.388;11.784;2023-03-21T13:30:29;21.25;47.10
68578;SHT31;61668;45.388;11.784;2023-03-21T13:35:35;21.31;46.87
68578;SHT31;61668;45.388;11.784;2023-03-21T13:38:05;21.33;46.59
68578;SHT31;61668;45.388;11.784;2023-03-21T13:45:57;21.35;46.99
68578;SHT31;61668;45.388;11.784;2023-03-21T13:51:18;21.45;45.96
68578;SHT31;61668;45.388;11.784;2023-03-21T13:54:25;21.47;45.28
68578;SHT31;61668;45.388;11.784;2023-03-21T13:56:55;21.47;43.79
68578;SHT31;61668;45.388;11.784;2023-03-21T14:04:59;21.54;42.96
68578;SHT31;61668;45.388;11.784;2023-03-21T14:07:32;21.53;41.90
68578;SHT31;61668;45.388;11.784;2023-03-21T14:10:03;21.49;41.81
68578;SHT31;61668;45.388;11.784;2023-03-21T14:12:54;21.45;41.62
68578;SHT31;61668;45.388;11.784;2023-03-21T14:15:23;21.40;41.44
68578;SHT31;61668;45.388;11.784;2023-03-21T14:18:05;21.37;41.18
68578;SHT31;61668;45.388;11.784;2023-03-21T14:20:32;21.35;41.58
68578;SHT31;61668;45.388;11.784;2023-03-21T14:23:03;21.33;41.70
68578;SHT31;61668;45.388;11.784;2023-03-21T14:25:34;21.31;41.44
68578;SHT31;61668;45.388;11.784;2023-03-21T14:28:04;21.30;41.19
68578;SHT31;61668;45.388;11.784;2023-03-21T14:30:37;21.27;41.56
68578;SHT31;61668;45.388;11.784;2023-03-21T14:36:23;21.21;41.34
68578;SHT31;61668;45.388;11.784;2023-03-21T14:38:53;21.20;41.52
68578;SHT31;61668;45.388;11.784;2023-03-21T14:41:23;21.21;41.66
68578;SHT31;61668;45.388;11.784;2023-03-21T14:46:39;21.12;40.96
68578;SHT31;61668;45.388;11.784;2023-03-21T14:49:39;21.08;40.91
68578;SHT31;61668;45.388;11.784;2023-03-21T14:52:00;21.05;40.09
68578;SHT31;61668;45.388;11.784;2023-03-21T14:54:30;21.02;41.00
68578;SHT31;61668;45.388;11.784;2023-03-21T14:57:00;21.02;41.15
68578;SHT31;61668;45.388;11.784;2023-03-21T14:59:31;21.02;41.45
68578;SHT31;61668;45.388;11.784;2023-03-21T15:02:02;21.02;41.30
68578;SHT31;61668;45.388;11.784;2023-03-21T15:04:39;21.00;41.20
68578;SHT31;61668;45.388;11.784;2023-03-21T15:07:30;20.99;41.68
68578;SHT31;61668;45.388;11.784;2023-03-21T15:09:59;21.00;41.86
68578;SHT31;61668;45.388;11.784;2023-03-21T15:12:33;21.00;41.53
68578;SHT31;61668;45.388;11.784;2023-03-21T15:14:59;21.00;41.48
68578;SHT31;61668;45.388;11.784;2023-03-21T15:17:26;20.97;41.66
68578;SHT31;61668;45.388;11.784;2023-03-21T15:19:52;20.95;41.66
68578;SHT31;61668;45.388;11.784;2023-03-21T15:22:29;20.93;41.89
68578;SHT31;61668;45.388;11.784;2023-03-21T15:25:04;20.91;42.08
68578;SHT31;61668;45.388;11.784;2023-03-21T15:27:37;20.90;42.07
68578;SHT31;61668;45.388;11.784;2023-03-21T15:30:06;20.87;42.12
68578;SHT31;61668;45.388;11.784;2023-03-21T15:32:52;20.86;42.49
68578;SHT31;61668;45.388;11.784;2023-03-21T15:35:21;20.83;42.29
68578;SHT31;61668;45.388;11.784;2023-03-21T15:37:59;20.81;42.11
68578;SHT31;61668;45.388;11.784;2023-03-21T15:40:26;20.78;42.37
68578;SHT31;61668;45.388;11.784;2023-03-21T15:45:44;20.73;42.69
68578;SHT31;61668;45.388;11.784;2023-03-21T15:48:15;20.70;42.54
68578;SHT31;61668;45.388;11.784;2023-03-21T15:53:26;20.62;41.67
68578;SHT31;61668;45.388;11.784;2023-03-21T15:55:59;20.58;41.93
68578;SHT31;61668;45.388;11.784;2023-03-21T15:58:35;20.53;41.96
68578;SHT31;61668;45.388;11.784;2023-03-21T16:01:19;20.48;42.17
68578;SHT31;61668;45.388;11.784;2023-03-21T16:03:47;20.43;42.61
68578;SHT31;61668;45.388;11.784;2023-03-21T16:06:21;20.36;42.74
68578;SHT31;61668;45.388;11.784;2023-03-21T16:11:37;20.23;43.35
68578;SHT31;61668;45.388;11.784;2023-03-21T16:14:07;20.18;43.98
68578;SHT31;61668;45.388;11.784;2023-03-21T16:16:34;20.10;44.11
68578;SHT31;61668;45.388;11.784;2023-03-21T16:19:00;20.04;44.26
68578;SHT31;61668;45.388;11.784;2023-03-21T16:21:27;19.98;44.21
68578;SHT31;61668;45.388;11.784;2023-03-21T16:23:55;19.92;44.39
68578;SHT31;61668;45.388;11.784;2023-03-21T16:26:23;19.86;44.77
68578;SHT31;61668;45.388;11.784;2023-03-21T16:28:54;19.81;45.07
68578;SHT31;61668;45.388;11.784;2023-03-21T16:31:21;19.73;45.21
68578;SHT31;61668;45.388;11.784;2023-03-21T16:33:53;19.67;45.46
68578;SHT31;61668;45.388;11.784;2023-03-21T16:36:22;19.60;45.88
68578;SHT31;61668;45.388;11.784;2023-03-21T16:38:54;19.54;45.90
68578;SHT31;61668;45.388;11.784;2023-03-21T16:41:22;19.46;46.31
68578;SHT31;61668;45.388;11.784;2023-03-21T16:43:50;19.39;46.46
68578;SHT31;61668;45.388;11.784;2023-03-21T16:46:21;19.32;46.82
68578;SHT31;61668;45.388;11.784;2023-03-21T16:48:50;19.23;47.02
68578;SHT31;61668;45.388;11.784;2023-03-21T16:51:20;19.16;47.16
68578;SHT31;61668;45.388;11.784;2023-03-21T16:53:55;19.09;47.37
68578;SHT31;61668;45.388;11.784;2023-03-21T16:56:27;19.00;47.29
68578;SHT31;61668;45.388;11.784;2023-03-21T16:58:57;18.92;47.39
68578;SHT31;61668;45.388;11.784;2023-03-21T17:01:23;18.82;47.66
68578;SHT31;61668;45.388;11.784;2023-03-21T17:03:51;18.74;47.92
68578;SHT31;61668;45.388;11.784;2023-03-21T17:06:22;18.64;48.25
68578;SHT31;61668;45.388;11.784;2023-03-21T17:08:51;18.55;48.53
68578;SHT31;61668;45.388;11.784;2023-03-21T17:11:19;18.46;48.75
68578;SHT31;61668;45.388;11.784;2023-03-21T17:13:47;18.35;48.89
68578;SHT31;61668;45.388;11.784;2023-03-21T17:16:16;18.25;48.94
68578;SHT31;61668;45.388;11.784;2023-03-21T17:18:47;18.14;49.08
68578;SHT31;61668;45.388;11.784;2023-03-21T17:23:48;17.92;49.46
68578;SHT31;61668;45.388;11.784;2023-03-21T17:26:19;17.80;49.78
68578;SHT31;61668;45.388;11.784;2023-03-21T17:28:48;17.70;50.09
68578;SHT31;61668;45.388;11.784;2023-03-21T17:31:15;17.60;50.60
68578;SHT31;61668;45.388;11.784;2023-03-21T17:33:44;17.49;51.03
68578;SHT31;61668;45.388;11.784;2023-03-21T17:36:11;17.38;51.34
68578;SHT31;61668;45.388;11.784;2023-03-21T17:38:40;17.28;51.48
68578;SHT31;61668;45.388;11.784;2023-03-21T17:41:14;17.18;51.70
68578;SHT31;61668;45.388;11.784;2023-03-21T17:43:42;17.11;51.65
68578;SHT31;61668;45.388;11.784;2023-03-21T17:46:12;17.02;51.91
68578;SHT31;61668;45.388;11.784;2023-03-21T17:48:41;16.93;52.20